Time;durP1;ratioP1;P1;durP2;ratioP2;P2;SDS_P1;SDS_P2;PMS_P1;PMS_P2;Temp;Humidity;BMP_temperature;BMP_pressure;BME280_temperature;BME280_humidity;BME280_pressure;Samples;Min_cycle;Max_cycle;Signal;HPM_P1;HPM_P2
2024/01/07 00:00:53;;;;;;;10.70;10.40;;;4.00;99.90;;;;;;6080896;23;20198;-82
2024/01/07 00:03:20;;;;;;;10.87;10.57;;;4.00;99.90;;;;;;6080270;23;20206;-83
2024/01/07 00:05:48;;;;;;;11.23;10.83;;;4.00;99.90;;;;;;6080423;23;20260;-83
2024/01/07 00:08:15;;;;;;;11.13;10.73;;;4.00;99.90;;;;;;6078933;23;20271;-83
2024/01/07 00:10:44;;;;;;;11.00;10.70;;;4.00;99.90;;;;;;6079279;23;20199;-82
2024/01/07 00:13:11;;;;;;;10.90;10.60;;;4.00;99.90;;;;;;6078608;23;20198;-83
2024/01/07 00:15:39;;;;;;;11.13;10.73;;;4.10;99.90;;;;;;6078390;23;20206;-83
2024/01/07 00:18:06;;;;;;;11.00;10.60;;;4.00;99.90;;;;;;6078956;23;20202;-83
2024/01/07 00:20:33;;;;;;;10.90;10.57;;;4.00;99.90;;;;;;6079202;23;20211;-82
2024/01/07 00:23:01;;;;;;;11.10;10.70;;;4.00;99.90;;;;;;6079237;23;20203;-83
2024/01/07 00:25:28;;;;;;;11.07;10.70;;;3.90;99.90;;;;;;6079294;23;20203;-83
2024/01/07 00:27:57;;;;;;;11.00;10.60;;;4.00;99.90;;;;;;6083965;23;20206;-81
2024/01/07 00:30:24;;;;;;;11.20;10.80;;;4.00;99.90;;;;;;6082094;23;20202;-82
2024/01/07 00:32:52;;;;;;;11.10;10.70;;;4.00;99.90;;;;;;6080661;23;20226;-81
2024/01/07 00:35:19;;;;;;;11.10;10.70;;;4.00;99.90;;;;;;6079585;23;20226;-81
2024/01/07 00:37:46;;;;;;;10.87;10.57;;;4.00;99.90;;;;;;6078483;23;20221;-82
2024/01/07 00:40:14;;;;;;;10.97;10.67;;;4.00;99.90;;;;;;6078730;23;20203;-81
2024/01/07 00:42:41;;;;;;;10.50;10.20;;;4.00;99.90;;;;;;6082001;23;20209;-81
2024/01/07 00:45:10;;;;;;;10.90;10.60;;;3.90;99.90;;;;;;6079771;23;20249;-81
2024/01/07 00:47:38;;;;;;;10.80;10.50;;;4.00;99.90;;;;;;6078774;23;20210;-82
2024/01/07 00:50:06;;;;;;;11.27;10.87;;;3.90;99.90;;;;;;6079853;23;20207;-81
2024/01/07 00:52:34;;;;;;;10.83;10.53;;;4.00;99.90;;;;;;6079143;23;20206;-82
2024/01/07 00:55:03;;;;;;;10.80;10.50;;;3.90;99.90;;;;;;6079055;23;20211;-81
2024/01/07 00:57:30;;;;;;;10.73;10.43;;;3.90;99.90;;;;;;6078689;23;20225;-82
2024/01/07 00:59:58;;;;;;;10.90;10.60;;;3.90;99.90;;;;;;6079077;23;20209;-81
2024/01/07 01:02:29;;;;;;;10.80;10.50;;;3.90;99.90;;;;;;6093261;23;20189;-81
2024/01/07 01:04:57;;;;;;;10.80;10.50;;;3.90;99.90;;;;;;6094221;23;20202;-81
2024/01/07 01:07:24;;;;;;;11.27;10.87;;;3.90;99.90;;;;;;6094048;23;20202;-81
2024/01/07 01:09:51;;;;;;;11.27;10.87;;;4.00;99.90;;;;;;6083829;23;20269;-81
2024/01/07 01:12:18;;;;;;;11.50;11.10;;;4.00;99.90;;;;;;6081248;23;20190;-81
2024/01/07 01:14:46;;;;;;;11.10;10.70;;;4.00;99.90;;;;;;6080114;23;20206;-82
2024/01/07 01:17:13;;;;;;;11.17;10.77;;;4.00;99.90;;;;;;6079185;23;20202;-81
2024/01/07 01:19:42;;;;;;;10.90;10.60;;;4.00;99.90;;;;;;6079230;23;20190;-82
2024/01/07 01:22:09;;;;;;;11.30;10.90;;;4.00;99.90;;;;;;6080029;23;20198;-81
2024/01/07 01:24:36;;;;;;;11.30;10.90;;;4.00;99.90;;;;;;6079255;23;20206;-81
2024/01/07 01:27:04;;;;;;;11.27;10.87;;;4.00;99.90;;;;;;6079033;23;20206;-82
2024/01/07 01:29:31;;;;;;;10.73;10.43;;;4.00;99.90;;;;;;6079385;23;20202;-82
2024/01/07 01:31:59;;;;;;;10.93;10.63;;;4.00;99.90;;;;;;6079096;23;20198;-82
2024/01/07 01:34:26;;;;;;;11.07;10.70;;;4.00;99.90;;;;;;6079084;23;20198;-82
2024/01/07 01:36:55;;;;;;;11.03;10.70;;;4.00;99.90;;;;;;6079459;23;20202;-81
2024/01/07 01:39:22;;;;;;;11.23;10.83;;;4.00;99.90;;;;;;6078279;23;20194;-81
2024/01/07 01:41:50;;;;;;;11.20;10.80;;;3.90;99.90;;;;;;6078860;23;20194;-82
2024/01/07 01:44:17;;;;;;;11.10;10.70;;;3.90;99.90;;;;;;6079003;23;20280;-82
2024/01/07 01:46:46;;;;;;;11.23;10.83;;;3.90;99.90;;;;;;6078949;23;20254;-82
2024/01/07 01:49:14;;;;;;;11.27;10.87;;;3.90;99.90;;;;;;6078515;23;20225;-82
2024/01/07 01:51:43;;;;;;;11.23;10.83;;;3.90;99.90;;;;;;6077996;23;20198;-82
2024/01/07 01:54:12;;;;;;;10.93;10.63;;;4.00;99.90;;;;;;6079040;23;20222;-82
2024/01/07 01:56:40;;;;;;;11.20;10.80;;;4.00;99.90;;;;;;6080536;23;20207;-83
2024/01/07 01:59:08;;;;;;;11.10;10.70;;;3.90;99.90;;;;;;6081882;23;20209;-81
2024/01/07 02:01:35;;;;;;;10.90;10.60;;;3.90;99.90;;;;;;6088364;23;20277;-82
2024/01/07 02:04:02;;;;;;;10.90;10.60;;;3.90;99.90;;;;;;6079465;23;20206;-82
2024/01/07 02:06:31;;;;;;;11.20;10.80;;;4.00;99.90;;;;;;6078843;23;20202;-83
2024/01/07 02:08:58;;;;;;;11.10;10.70;;;4.00;99.90;;;;;;6078830;23;20208;-82
2024/01/07 02:11:27;;;;;;;11.20;10.80;;;3.90;99.90;;;;;;6078708;23;20962;-82
2024/01/07 02:13:55;;;;;;;10.87;10.57;;;4.00;99.90;;;;;;6081129;23;20202;-83
2024/01/07 02:16:22;;;;;;;11.40;11.00;;;4.00;99.90;;;;;;6080591;23;20206;-82
2024/01/07 02:18:49;;;;;;;11.30;10.90;;;4.00;99.90;;;;;;6078271;23;20211;-82
2024/01/07 02:21:17;;;;;;;11.17;10.77;;;4.00;99.90;;;;;;6078948;23;20211;-81
2024/01/07 02:23:44;;;;;;;10.90;10.60;;;4.10;99.90;;;;;;6077925;23;20245;-81
2024/01/07 02:26:13;;;;;;;10.73;10.43;;;4.10;99.90;;;;;;6078193;23;20206;-81
2024/01/07 02:28:40;;;;;;;11.20;10.80;;;4.10;99.90;;;;;;6078017;23;20206;-82
2024/01/07 02:31:08;;;;;;;10.87;10.57;;;4.00;99.90;;;;;;6079505;23;20198;-81
2024/01/07 02:33:35;;;;;;;10.90;10.60;;;4.00;99.90;;;;;;6080336;23;20297;-81
2024/01/07 02:36:03;;;;;;;10.90;10.60;;;4.00;99.90;;;;;;6079995;23;20222;-81
2024/01/07 02:38:30;;;;;;;11.27;10.87;;;3.90;99.90;;;;;;6078918;23;20214;-82
2024/01/07 02:40:58;;;;;;;10.70;10.40;;;3.90;99.90;;;;;;6080092;23;20254;-82
2024/01/07 02:43:26;;;;;;;10.80;10.50;;;3.90;99.90;;;;;;6079859;23;20198;-82
2024/01/07 02:45:53;;;;;;;10.37;10.07;;;3.90;99.90;;;;;;6079457;23;21068;-84
2024/01/07 02:48:21;;;;;;;10.50;10.20;;;3.90;99.90;;;;;;6079742;23;20658;-83
2024/01/07 02:50:48;;;;;;;10.87;10.57;;;3.80;99.90;;;;;;6080288;23;20264;-82
2024/01/07 02:53:16;;;;;;;10.73;10.43;;;3.80;99.90;;;;;;6080469;23;20200;-82
2024/01/07 02:55:46;;;;;;;10.90;10.60;;;3.80;99.90;;;;;;6080939;23;20202;-83
2024/01/07 02:58:13;;;;;;;10.87;10.57;;;3.80;99.90;;;;;;6079516;23;20277;-83
2024/01/07 03:00:42;;;;;;;10.67;10.37;;;3.80;99.90;;;;;;6079676;23;20203;-83
2024/01/07 03:03:09;;;;;;;10.67;10.37;;;3.90;99.90;;;;;;6080025;23;20198;-82
2024/01/07 03:05:37;;;;;;;10.60;10.30;;;3.80;99.90;;;;;;6079353;23;20218;-82
2024/01/07 03:08:07;;;;;;;10.30;10.00;;;3.80;99.90;;;;;;6079597;23;20222;-82
2024/01/07 03:10:35;;;;;;;10.50;10.20;;;3.80;99.90;;;;;;6079965;23;20190;-84
2024/01/07 03:13:02;;;;;;;10.60;10.30;;;3.80;99.90;;;;;;6080342;23;20272;-83
2024/01/07 03:15:30;;;;;;;10.27;9.97;;;3.80;99.90;;;;;;6079814;23;20214;-81
2024/01/07 03:17:59;;;;;;;10.37;10.07;;;3.80;99.90;;;;;;6079278;23;20254;-81
2024/01/07 03:20:27;;;;;;;10.50;10.20;;;3.80;99.90;;;;;;6078466;23;20257;-82
2024/01/07 03:22:55;;;;;;;10.40;10.10;;;3.70;99.90;;;;;;6079283;23;20207;-81
2024/01/07 03:25:22;;;;;;;9.97;9.67;;;3.70;99.90;;;;;;6079783;23;20210;-81
2024/01/07 03:27:49;;;;;;;10.10;9.80;;;3.60;99.90;;;;;;6079406;23;20203;-82
2024/01/07 03:30:17;;;;;;;10.23;9.93;;;3.60;99.90;;;;;;6079238;23;20208;-82
2024/01/07 03:32:44;;;;;;;10.10;9.80;;;3.60;99.90;;;;;;6079068;23;20285;-81
2024/01/07 03:35:13;;;;;;;9.87;9.57;;;3.60;99.90;;;;;;6079102;23;20259;-82
2024/01/07 03:37:40;;;;;;;10.17;9.87;;;3.60;99.90;;;;;;6079159;23;20234;-82
2024/01/07 03:40:12;;;;;;;9.80;9.50;;;3.60;99.90;;;;;;6078171;23;20253;-82
2024/01/07 03:42:40;;;;;;;10.00;9.70;;;3.50;99.90;;;;;;6077687;23;20205;-81
2024/01/07 03:45:07;;;;;;;9.90;9.60;;;3.50;99.90;;;;;;6078298;23;20214;-81
2024/01/07 03:47:34;;;;;;;10.00;9.70;;;3.50;99.90;;;;;;6078214;23;20199;-81
2024/01/07 03:50:02;;;;;;;10.00;9.70;;;3.50;99.90;;;;;;6080171;23;20277;-81
2024/01/07 03:52:30;;;;;;;10.10;9.80;;;3.50;99.90;;;;;;6079821;23;20198;-81
2024/01/07 03:54:58;;;;;;;9.77;9.47;;;3.50;99.90;;;;;;6079797;23;20205;-81
2024/01/07 03:57:25;;;;;;;9.80;9.50;;;3.50;99.90;;;;;;6079221;23;20383;-81
2024/01/07 03:59:53;;;;;;;9.77;9.47;;;3.60;99.90;;;;;;6079150;23;20194;-81
2024/01/07 04:02:20;;;;;;;10.00;9.70;;;3.60;99.90;;;;;;6079031;23;20222;-82
2024/01/07 04:04:47;;;;;;;10.30;10.00;;;3.60;99.90;;;;;;6079332;23;20265;-82
2024/01/07 04:07:14;;;;;;;9.80;9.50;;;3.50;99.90;;;;;;6078168;23;20205;-81
2024/01/07 04:09:45;;;;;;;10.23;9.93;;;3.40;99.90;;;;;;6078794;23;20967;-82
2024/01/07 04:12:12;;;;;;;10.10;9.80;;;3.40;99.90;;;;;;6078832;23;20221;-81
2024/01/07 04:14:39;;;;;;;10.50;10.20;;;3.40;99.90;;;;;;6079257;23;20211;-82
2024/01/07 04:17:08;;;;;;;10.10;9.80;;;3.30;99.90;;;;;;6081360;23;20206;-82
2024/01/07 04:19:37;;;;;;;9.97;9.67;;;3.40;99.90;;;;;;6080604;23;20203;-81
2024/01/07 04:22:05;;;;;;;9.97;9.67;;;3.40;99.90;;;;;;6080301;23;20201;-81
2024/01/07 04:24:32;;;;;;;10.00;9.70;;;3.30;99.90;;;;;;6079341;23;20222;-81
2024/01/07 04:27:04;;;;;;;9.83;9.53;;;3.30;99.90;;;;;;6081196;23;20210;-81
2024/01/07 04:29:31;;;;;;;9.80;9.50;;;3.30;99.90;;;;;;6079112;23;20206;-81
2024/01/07 04:31:58;;;;;;;10.10;9.80;;;3.30;99.90;;;;;;6078885;23;20195;-81
2024/01/07 04:34:25;;;;;;;9.80;9.50;;;3.40;99.90;;;;;;6077647;23;20285;-80
2024/01/07 04:36:53;;;;;;;9.67;9.37;;;3.30;99.90;;;;;;6077802;23;20198;-81
2024/01/07 04:39:20;;;;;;;9.70;9.40;;;3.30;99.90;;;;;;6078616;23;20198;-81
2024/01/07 04:41:47;;;;;;;9.87;9.57;;;3.20;99.90;;;;;;6078092;23;20203;-81
2024/01/07 04:44:16;;;;;;;9.80;9.50;;;3.10;99.90;;;;;;6079075;23;20252;-82
2024/01/07 04:46:43;;;;;;;9.80;9.50;;;3.10;99.90;;;;;;6080858;23;20207;-82
2024/01/07 04:49:11;;;;;;;9.53;9.23;;;3.10;99.90;;;;;;6079634;23;20206;-81
2024/01/07 04:51:38;;;;;;;10.00;9.70;;;3.10;99.90;;;;;;6078617;23;20673;-81
2024/01/07 04:54:05;;;;;;;10.10;9.80;;;3.10;99.90;;;;;;6078030;23;20204;-81
2024/01/07 04:56:33;;;;;;;9.63;9.33;;;3.10;99.90;;;;;;6078403;23;20203;-82
2024/01/07 04:59:00;;;;;;;9.83;9.53;;;3.10;99.90;;;;;;6077921;23;20209;-82
2024/01/07 05:01:29;;;;;;;9.80;9.50;;;3.00;99.90;;;;;;6077997;23;20202;-81
2024/01/07 05:03:56;;;;;;;9.60;9.30;;;3.00;99.90;;;;;;6078301;23;20202;-81
2024/01/07 05:06:23;;;;;;;10.10;9.80;;;3.00;99.90;;;;;;6077754;23;20289;-82
2024/01/07 05:08:51;;;;;;;9.90;9.60;;;2.90;99.90;;;;;;6078096;23;20219;-81
2024/01/07 05:11:18;;;;;;;9.83;9.53;;;2.90;99.90;;;;;;6077806;23;20233;-82
2024/01/07 05:13:45;;;;;;;9.70;9.40;;;2.90;99.90;;;;;;6077576;23;20198;-81
2024/01/07 05:16:20;;;;;;;10.03;9.73;;;2.90;99.90;;;;;;6078117;23;20254;-82
2024/01/07 05:18:49;;;;;;;9.70;9.40;;;2.90;99.90;;;;;;6077419;23;20201;-81
2024/01/07 05:21:16;;;;;;;9.70;9.40;;;3.00;99.90;;;;;;6078640;23;20198;-82
2024/01/07 05:23:44;;;;;;;10.10;9.80;;;2.90;99.90;;;;;;6078866;23;20297;-82
2024/01/07 05:26:11;;;;;;;9.90;9.60;;;2.90;99.90;;;;;;6078025;23;20209;-81
2024/01/07 05:28:38;;;;;;;9.97;9.67;;;2.90;99.90;;;;;;6078284;23;20206;-81
2024/01/07 05:31:06;;;;;;;10.10;9.80;;;2.80;99.90;;;;;;6078072;23;20199;-81
2024/01/07 05:33:33;;;;;;;9.87;9.57;;;2.80;99.90;;;;;;6078187;23;20206;-82
2024/01/07 05:36:02;;;;;;;9.83;9.53;;;2.80;99.90;;;;;;6078032;23;20210;-82
2024/01/07 05:39:21;;;;;;;;;;;;;;;;;;;;;
2024/01/07 05:42:10;;;;;;;10.00;9.70;;;2.60;99.90;;;;;;6075011;23;20232;-86
2024/01/07 05:45:24;;;;;;;10.10;9.80;;;2.50;99.90;;;;;;6074457;23;20210;-86
2024/01/07 05:51:34;;;;;;;9.73;9.43;;;2.40;99.90;;;;;;6085292;23;20206;-87
2024/01/07 05:54:43;;;;;;;9.60;9.30;;;2.40;99.90;;;;;;6074527;23;20208;-87
2024/01/07 05:57:47;;;;;;;10.20;9.90;;;2.40;99.90;;;;;;6074147;23;20225;-86
2024/01/07 06:07:08;;;;;;;9.60;9.30;;;2.30;99.90;;;;;;6081402;23;20210;-87
2024/01/07 06:09:52;;;;;;;9.83;9.53;;;2.30;99.90;;;;;;6074811;23;20254;-87
2024/01/07 06:12:45;;;;;;;9.77;9.47;;;2.30;99.90;;;;;;6077862;23;20209;-87
2024/01/07 06:18:55;;;;;;;9.73;9.43;;;2.20;99.90;;;;;;6095015;23;20198;-86
2024/01/07 06:22:02;;;;;;;9.80;9.50;;;2.20;99.90;;;;;;6092620;23;20263;-87
2024/01/07 06:24:46;;;;;;;9.87;9.57;;;2.20;99.90;;;;;;6091593;23;20217;-87
2024/01/07 06:27:54;;;;;;;9.90;9.60;;;2.20;99.90;;;;;;6089042;23;20202;-87
2024/01/07 06:34:34;;;;;;;10.07;9.77;;;2.10;99.90;;;;;;6077053;23;20209;-87
2024/01/07 06:41:05;;;;;;;;;;;;;;;;;;;;;
2024/01/07 06:44:12;;;;;;;9.77;9.47;;;2.10;99.90;;;;;;6074239;23;20226;-87
2024/01/07 06:47:11;;;;;;;9.90;9.60;;;2.10;99.90;;;;;;6074452;23;20210;-87
2024/01/07 06:53:21;;;;;;;9.83;9.53;;;2.00;99.90;;;;;;6084372;23;20202;-87
2024/01/07 06:56:58;;;;;;;;;;;;;;;;;;;;;
2024/01/07 07:00:08;;;;;;;;;;;;;;;;;;;;;
2024/01/07 07:03:17;;;;;;;;;;;;;;;;;;;;;
2024/01/07 07:09:11;;;;;;;9.53;9.23;;;2.00;99.90;;;;;;6048812;23;20202;-87
2024/01/07 07:12:33;;;;;;;;;;;;;;;;;;;;;
2024/01/07 07:15:20;;;;;;;9.10;8.80;;;2.00;99.90;;;;;;6174417;23;20210;-87
2024/01/07 07:21:19;;;;;;;9.50;9.20;;;1.90;99.90;;;;;;6084021;23;20207;-87
2024/01/07 07:27:27;;;;;;;9.13;8.83;;;2.00;99.90;;;;;;6076330;23;20261;-87
2024/01/07 07:30:30;;;;;;;;;;;;;;;;;;;;;
2024/01/07 07:33:43;;;;;;;9.17;8.87;;;2.00;99.90;;;;;;6078924;23;20196;-87
2024/01/07 07:36:58;;;;;;;9.10;8.80;;;1.90;99.90;;;;;;6076016;23;20204;-87
2024/01/07 07:40:20;;;;;;;;;;;;;;;;;;;;;
2024/01/07 07:46:12;;;;;;;9.17;8.87;;;2.00;99.90;;;;;;6081222;23;20214;-87
2024/01/07 07:49:40;;;;;;;9.10;8.80;;;1.90;99.90;;;;;;6074815;23;20209;-87
2024/01/07 07:52:28;;;;;;;9.40;9.10;;;2.00;99.90;;;;;;6075989;23;20210;-87
2024/01/07 07:55:28;;;;;;;;;;;;;;;;;;;;;
2024/01/07 07:58:15;;;;;;;9.20;8.90;;;2.00;99.90;;;;;;6074970;23;20202;-87
2024/01/07 08:01:42;;;;;;;9.10;8.80;;;2.00;99.90;;;;;;6078650;23;20255;-87
2024/01/07 08:04:28;;;;;;;9.30;9.00;;;2.00;99.90;;;;;;6042431;23;20191;-87
2024/01/07 08:07:23;;;;;;;9.37;9.07;;;2.00;99.90;;;;;;6071753;23;20218;-87
2024/01/07 08:10:06;;;;;;;8.80;8.60;;;2.00;99.90;;;;;;6076289;23;20203;-87
2024/01/07 08:13:35;;;;;;;;;;;;;;;;;;;;;
2024/01/07 08:16:39;;;;;;;;;;;;;;;;;;;;;
2024/01/07 08:19:24;;;;;;;9.37;9.07;;;1.80;99.90;;;;;;6075592;23;20212;-87
2024/01/07 08:22:14;;;;;;;9.03;8.73;;;1.80;99.90;;;;;;6075897;23;20198;-87
2024/01/07 08:24:55;;;;;;;9.33;9.03;;;1.70;99.90;;;;;;6074824;23;20202;-86
2024/01/07 08:27:45;;;;;;;9.60;9.30;;;1.70;99.90;;;;;;6075717;23;20221;-86
2024/01/07 08:30:40;;;;;;;9.13;8.83;;;1.70;99.90;;;;;;6074969;23;20206;-87
2024/01/07 08:33:39;;;;;;;;;;;;;;;;;;;;;
2024/01/07 08:36:24;;;;;;;8.87;8.67;;;1.70;99.90;;;;;;6075600;23;20205;-87
2024/01/07 08:39:14;;;;;;;9.10;8.80;;;1.70;99.90;;;;;;6074194;23;20222;-87
2024/01/07 08:41:57;;;;;;;9.30;9.00;;;1.60;99.90;;;;;;6074957;23;20229;-87
2024/01/07 08:47:34;;;;;;;8.87;8.67;;;1.60;99.90;;;;;;6075438;23;20228;-87
2024/01/07 08:56:43;;;;;;;;;;;;;;;;;;;;;
2024/01/07 08:59:39;;;;;;;;;;;;;;;;;;;;;
2024/01/07 09:02:16;;;;;;;8.77;8.57;;;1.40;99.90;;;;;;6199335;23;20210;-86
2024/01/07 09:05:13;;;;;;;8.90;8.70;;;1.40;99.90;;;;;;6075748;23;20198;-87
2024/01/07 09:08:06;;;;;;;9.23;8.93;;;1.40;99.90;;;;;;6075237;23;20214;-87
2024/01/07 09:14:05;;;;;;;9.10;8.80;;;1.30;99.90;;;;;;6078421;23;20243;-87
2024/01/07 09:16:59;;;;;;;8.53;8.33;;;1.30;99.90;;;;;;6077354;23;20198;-87
2024/01/07 09:19:54;;;;;;;8.70;8.50;;;1.20;99.90;;;;;;6075178;23;20194;-87
2024/01/07 09:25:29;;;;;;;8.67;8.47;;;1.30;99.90;;;;;;6074639;23;20225;-86
2024/01/07 09:28:24;;;;;;;8.37;8.17;;;1.20;99.90;;;;;;6074665;23;20265;-87
2024/01/07 09:31:09;;;;;;;8.53;8.33;;;1.20;99.90;;;;;;6088531;23;20179;-86
2024/01/07 09:33:59;;;;;;;8.80;8.60;;;1.20;99.90;;;;;;6089091;23;20257;-86
2024/01/07 09:36:50;;;;;;;8.70;8.50;;;1.20;99.90;;;;;;6074636;23;20202;-86
2024/01/07 09:39:33;;;;;;;8.77;8.57;;;1.10;99.90;;;;;;6074079;23;20203;-87
2024/01/07 09:42:20;;;;;;;8.63;8.43;;;1.00;99.90;;;;;;6073833;23;20198;-87
2024/01/07 09:45:46;;;;;;;8.37;8.17;;;1.00;99.90;;;;;;6078455;23;20266;-88
2024/01/07 09:48:43;;;;;;;8.60;8.40;;;1.00;99.90;;;;;;6078092;23;20210;-89
2024/01/07 09:51:28;;;;;;;8.70;8.50;;;1.00;99.90;;;;;;6074403;23;20281;-88
2024/01/07 09:54:17;;;;;;;8.47;8.27;;;0.90;99.90;;;;;;6075633;23;20202;-88
2024/01/07 09:57:16;;;;;;;8.43;8.23;;;0.90;99.90;;;;;;6074183;23;21105;-89
2024/01/07 10:00:19;;;;;;;8.53;8.33;;;0.80;99.90;;;;;;6073511;23;20194;-88
2024/01/07 10:03:17;;;;;;;8.63;8.43;;;0.80;99.90;;;;;;6073548;23;20198;-86
2024/01/07 10:06:00;;;;;;;8.43;8.23;;;0.70;99.90;;;;;;6061505;23;20278;-85
2024/01/07 10:08:56;;;;;;;8.63;8.43;;;0.70;99.90;;;;;;6078195;23;20202;-86
2024/01/07 10:11:55;;;;;;;;;;;;;;;;;;;;;
2024/01/07 10:14:41;;;;;;;8.43;8.23;;;0.70;99.90;;;;;;6075283;23;20189;-86
2024/01/07 10:17:36;;;;;;;8.63;8.43;;;0.70;99.90;;;;;;6074801;23;20272;-88
2024/01/07 10:20:29;;;;;;;8.40;8.20;;;0.70;99.90;;;;;;6073290;23;20261;-88
2024/01/07 10:23:18;;;;;;;8.87;8.63;;;0.60;99.90;;;;;;6072696;23;20309;-88
2024/01/07 10:26:24;;;;;;;8.70;8.50;;;0.60;99.90;;;;;;6072739;23;20254;-88
2024/01/07 10:35:21;;;;;;;;;;;;;;;;;;;;;
2024/01/07 10:38:03;;;;;;;;;;;;;;;;;;;;;
2024/01/07 10:41:19;;;;;;;8.80;8.60;;;0.60;99.90;;;;;;6074863;23;20241;-85
2024/01/07 10:44:09;;;;;;;8.43;8.23;;;0.60;99.90;;;;;;6074438;23;20198;-87
2024/01/07 10:47:14;;;;;;;8.53;8.33;;;0.60;99.90;;;;;;6073734;23;20206;-87
2024/01/07 10:50:29;;;;;;;8.30;8.10;;;0.60;99.90;;;;;;6073646;23;20225;-87
2024/01/07 10:53:25;;;;;;;8.17;7.97;;;0.60;99.90;;;;;;6086002;23;20198;-87
2024/01/07 10:59:29;;;;;;;;;;;;;;;;;;;;;
2024/01/07 11:02:13;;;;;;;8.60;8.40;;;0.60;99.90;;;;;;6084946;23;20253;-87
2024/01/07 11:05:05;;;;;;;8.30;8.10;;;0.60;99.90;;;;;;6076652;23;20281;-87
2024/01/07 11:11:32;;;;;;;8.50;8.30;;;0.60;99.90;;;;;;6082212;23;20206;-87
2024/01/07 11:14:26;;;;;;;8.90;8.70;;;0.50;99.90;;;;;;6078612;23;20202;-87
2024/01/07 11:17:08;;;;;;;7.97;7.77;;;0.60;99.90;;;;;;6076348;23;20205;-87
2024/01/07 11:20:27;;;;;;;8.33;8.13;;;0.60;99.90;;;;;;6076282;23;20202;-87
2024/01/07 11:23:46;;;;;;;8.50;8.30;;;0.60;99.90;;;;;;6077149;23;20191;-87
2024/01/07 11:26:27;;;;;;;8.33;8.13;;;0.60;99.90;;;;;;6076523;23;20287;-87
2024/01/07 11:29:31;;;;;;;8.03;7.83;;;0.60;99.90;;;;;;6076683;23;20206;-87
2024/01/07 11:36:11;;;;;;;8.47;8.27;;;0.60;99.90;;;;;;6071795;23;20264;-86
2024/01/07 11:38:43;;;;;;;8.67;8.47;;;0.60;99.90;;;;;;6077849;23;20217;-82
2024/01/07 11:41:13;;;;;;;8.60;8.40;;;0.60;99.90;;;;;;6078398;23;20191;-82
2024/01/07 11:43:55;;;;;;;8.30;8.10;;;0.60;99.90;;;;;;6078786;23;20206;-82
2024/01/07 11:46:23;;;;;;;8.40;8.20;;;0.60;99.90;;;;;;6078120;23;20209;-82
2024/01/07 11:48:51;;;;;;;8.60;8.40;;;0.50;99.90;;;;;;6078643;23;20233;-82
2024/01/07 11:51:19;;;;;;;8.60;8.40;;;0.50;99.90;;;;;;6078418;23;20205;-82
2024/01/07 11:53:49;;;;;;;8.27;8.07;;;0.50;99.90;;;;;;6077683;23;20202;-82
2024/01/07 11:56:16;;;;;;;8.70;8.50;;;0.40;99.90;;;;;;6078829;23;20194;-82
2024/01/07 11:58:44;;;;;;;8.30;8.10;;;0.40;99.90;;;;;;6078312;23;20214;-81
2024/01/07 12:01:11;;;;;;;8.33;8.13;;;0.40;99.90;;;;;;6084105;23;20205;-81
2024/01/07 12:03:42;;;;;;;8.80;8.60;;;0.40;99.90;;;;;;6082010;23;20202;-82
2024/01/07 12:06:13;;;;;;;8.80;8.60;;;0.40;99.90;;;;;;6081351;23;20215;-82
2024/01/07 12:08:40;;;;;;;8.67;8.47;;;0.50;99.90;;;;;;6084623;23;20206;-83
2024/01/07 12:11:10;;;;;;;8.30;8.10;;;0.50;99.90;;;;;;6083621;23;20199;-83
2024/01/07 12:13:38;;;;;;;8.63;8.43;;;0.50;99.90;;;;;;6082851;23;20209;-82
2024/01/07 12:16:07;;;;;;;8.57;8.37;;;0.50;99.90;;;;;;6082427;23;20206;-82
2024/01/07 12:18:34;;;;;;;8.43;8.23;;;0.50;99.90;;;;;;6080935;23;20265;-82
2024/01/07 12:21:01;;;;;;;8.53;8.33;;;0.40;99.90;;;;;;6080623;23;20206;-81
2024/01/07 12:23:29;;;;;;;8.50;8.30;;;0.40;99.90;;;;;;6080415;23;20206;-83
2024/01/07 12:26:10;;;;;;;8.63;8.43;;;0.40;99.90;;;;;;6083525;23;20238;-82
2024/01/07 12:28:37;;;;;;;8.57;8.37;;;0.40;99.90;;;;;;6086904;23;20257;-82
2024/01/07 12:31:08;;;;;;;8.50;8.30;;;0.40;99.90;;;;;;6086156;23;20210;-82
2024/01/07 12:33:39;;;;;;;9.07;8.83;;;0.40;99.90;;;;;;6078899;23;20281;-82
2024/01/07 12:36:08;;;;;;;8.40;8.20;;;0.40;99.90;;;;;;6078829;23;20206;-82
2024/01/07 12:38:38;;;;;;;8.90;8.70;;;0.40;99.90;;;;;;6077215;23;20207;-81
2024/01/07 12:41:06;;;;;;;8.90;8.70;;;0.40;99.90;;;;;;6082881;23;20238;-82
2024/01/07 12:43:35;;;;;;;8.97;8.77;;;0.40;99.90;;;;;;6094146;23;20210;-80
2024/01/07 12:46:05;;;;;;;8.73;8.53;;;0.40;99.90;;;;;;6087395;23;20186;-81
2024/01/07 12:48:32;;;;;;;9.20;8.90;;;0.30;99.90;;;;;;6075748;23;20220;-81
2024/01/07 12:51:01;;;;;;;9.00;8.80;;;0.40;99.90;;;;;;6075789;23;20253;-80
2024/01/07 12:53:29;;;;;;;8.97;8.73;;;0.40;99.90;;;;;;6075434;23;20199;-81
2024/01/07 12:55:59;;;;;;;8.73;8.53;;;0.40;99.90;;;;;;6077882;23;20198;-82
2024/01/07 12:58:26;;;;;;;8.90;8.70;;;0.30;99.90;;;;;;6078760;23;20209;-81
2024/01/07 13:00:55;;;;;;;8.83;8.63;;;0.40;99.90;;;;;;6083358;23;20206;-83
2024/01/07 13:03:24;;;;;;;8.90;8.70;;;0.30;99.90;;;;;;6079709;23;20215;-81
2024/01/07 13:05:55;;;;;;;9.23;8.93;;;0.30;99.90;;;;;;6078036;23;20283;-81
2024/01/07 13:08:25;;;;;;;9.13;8.87;;;0.30;99.90;;;;;;6075207;23;20237;-81
2024/01/07 13:10:53;;;;;;;8.90;8.70;;;0.30;99.90;;;;;;6082507;23;20205;-80
2024/01/07 13:13:21;;;;;;;8.93;8.73;;;0.30;99.90;;;;;;6084160;23;20198;-81
2024/01/07 13:15:50;;;;;;;9.20;8.90;;;0.30;99.90;;;;;;6084131;23;20194;-81
2024/01/07 13:18:20;;;;;;;8.90;8.70;;;0.30;99.90;;;;;;6082246;23;20275;-81
2024/01/07 13:20:48;;;;;;;8.80;8.60;;;0.30;99.90;;;;;;6078996;23;20214;-81
2024/01/07 13:23:15;;;;;;;9.17;8.90;;;0.30;99.90;;;;;;6078037;23;20198;-82
2024/01/07 13:25:42;;;;;;;8.70;8.50;;;0.40;99.90;;;;;;6079615;23;20207;-82
2024/01/07 13:28:10;;;;;;;8.80;8.60;;;0.30;99.90;;;;;;6078858;23;20286;-81
2024/01/07 13:30:40;;;;;;;9.37;9.07;;;0.30;99.90;;;;;;6076838;23;20198;-82
2024/01/07 13:33:07;;;;;;;9.00;8.80;;;0.30;99.90;;;;;;6076161;23;20205;-81
2024/01/07 13:35:36;;;;;;;8.90;8.70;;;0.30;99.90;;;;;;6075410;23;20202;-81
2024/01/07 13:38:04;;;;;;;8.70;8.50;;;0.30;99.90;;;;;;6075671;23;20211;-81
2024/01/07 13:40:31;;;;;;;9.03;8.83;;;0.30;99.90;;;;;;6075598;23;20194;-81
2024/01/07 13:42:58;;;;;;;9.27;8.97;;;0.30;99.90;;;;;;6076776;23;20241;-82
2024/01/07 13:45:26;;;;;;;9.30;9.00;;;0.30;99.90;;;;;;6075964;23;20211;-80
2024/01/07 13:47:53;;;;;;;8.70;8.50;;;0.30;99.90;;;;;;6076420;23;20213;-81
2024/01/07 13:50:20;;;;;;;8.70;8.50;;;0.30;99.90;;;;;;6078918;23;20221;-81
2024/01/07 13:52:49;;;;;;;9.20;8.90;;;0.30;99.90;;;;;;6078549;23;20277;-81
2024/01/07 13:55:17;;;;;;;8.93;8.73;;;0.30;99.90;;;;;;6077153;23;20217;-81
2024/01/07 13:57:45;;;;;;;9.40;9.10;;;0.30;99.90;;;;;;6075744;23;20266;-81
2024/01/07 14:00:18;;;;;;;8.93;8.73;;;0.30;99.90;;;;;;6077143;23;20194;-82
2024/01/07 14:02:46;;;;;;;8.90;8.70;;;0.30;99.90;;;;;;6077906;23;20225;-81
2024/01/07 14:05:14;;;;;;;8.93;8.73;;;0.30;99.90;;;;;;6076977;23;20202;-82
2024/01/07 14:07:42;;;;;;;8.20;8.00;;;0.20;99.90;;;;;;6077827;23;20221;-81
2024/01/07 14:10:11;;;;;;;9.30;9.00;;;0.20;99.90;;;;;;6075565;23;20198;-81
2024/01/07 14:12:38;;;;;;;9.13;8.90;;;0.20;99.90;;;;;;6076106;23;20201;-81
2024/01/07 14:15:08;;;;;;;9.20;8.90;;;0.30;99.90;;;;;;6075810;23;20198;-81
2024/01/07 14:17:35;;;;;;;9.27;8.97;;;0.30;99.90;;;;;;6076836;23;20228;-81
2024/01/07 14:20:03;;;;;;;8.93;8.73;;;0.30;99.90;;;;;;6076395;23;20206;-81
2024/01/07 14:22:31;;;;;;;8.47;8.27;;;0.30;99.90;;;;;;6079674;23;20198;-81
2024/01/07 14:24:58;;;;;;;8.73;8.53;;;0.20;99.90;;;;;;6079283;23;20206;-82
2024/01/07 14:27:27;;;;;;;8.93;8.73;;;0.20;99.90;;;;;;6079615;23;20202;-82
2024/01/07 14:29:54;;;;;;;9.20;8.90;;;0.20;99.90;;;;;;6080851;23;20249;-81
2024/01/07 14:32:21;;;;;;;9.23;8.93;;;0.10;99.90;;;;;;6080258;23;20213;-82
2024/01/07 14:34:50;;;;;;;8.90;8.70;;;0.10;99.90;;;;;;6081224;23;20210;-81
2024/01/07 14:37:17;;;;;;;8.83;8.63;;;0.10;99.90;;;;;;6081085;23;20229;-82
2024/01/07 14:39:45;;;;;;;9.10;8.87;;;0.10;99.90;;;;;;6079082;23;20210;-80
2024/01/07 14:42:12;;;;;;;8.63;8.43;;;0.10;99.90;;;;;;6078249;23;20202;-81
2024/01/07 14:44:41;;;;;;;8.60;8.40;;;0.10;99.90;;;;;;6078409;23;20197;-81
2024/01/07 14:47:09;;;;;;;8.80;8.60;;;0.00;99.90;;;;;;6079641;23;20200;-83
2024/01/07 14:49:36;;;;;;;8.53;8.33;;;0.10;99.90;;;;;;6079672;23;20198;-81
2024/01/07 14:52:04;;;;;;;8.53;8.33;;;0.10;99.90;;;;;;6080845;23;20237;-81
2024/01/07 14:54:32;;;;;;;8.90;8.70;;;0.00;99.90;;;;;;6080707;23;20226;-80
2024/01/07 14:57:00;;;;;;;8.60;8.40;;;0.00;99.90;;;;;;6080474;23;20202;-81
2024/01/07 14:59:27;;;;;;;8.77;8.57;;;-0.10;99.90;;;;;;6080616;23;20236;-80
2024/01/07 15:01:56;;;;;;;8.70;8.50;;;-0.20;99.90;;;;;;6080445;23;20205;-80
2024/01/07 15:04:23;;;;;;;8.67;8.47;;;-0.20;99.90;;;;;;6080389;23;20209;-80
2024/01/07 15:06:51;;;;;;;8.67;8.47;;;-0.10;99.90;;;;;;6080772;23;20201;-80
2024/01/07 15:09:18;;;;;;;8.90;8.70;;;-0.10;99.90;;;;;;6079556;23;20217;-80